Tiempo atmosférico en la estación meteorológica de Granada-cartuja, Granada (780 m.)



Fecha
DESCASC
Temp. máxima en grados centígrados (hora)
DESCASC
Temp. mínima en grados centígrados (hora)
DESCASC
Temp. media en grados centígrados
DESCASC
Racha de viento máxima en m/sg (hora)
DESCASC
Velocidad máxima media en intervalos de 10 minutos(hora)
DESCASC
Precipitaciones diarias en mm
DESCASC
Precipitaciones de 00:00 a 06:00 en mm
DESCASC
Precipitaciones de 06:00 a 12:00 en mm
DESCASC
Precipitaciones de 12:00 a 18:00 en mm
DESCASC
Precipitaciones de 18:00 a 24:00 en mm
DESCASC
11-12-2019 15.7 (15:20) 2.9 (08:30) 9.3 4.17 (16:30) 1.67 (16:30) 0 0 0 0 0
10-12-2019 20.8 (15:40) 3.8 (08:20) 12.3 3.06 (14:00) 1.39 (14:40) 0 0 0 0 0
09-12-2019 18.1 (16:00) 5.6 (08:50) 11.9 2.5 (14:00) 1.11 (14:50) 0 0 0 0 0
08-12-2019 15.6 (15:50) 3.3 (00:00) 9.5 2.78 (23:30) 1.39 (23:20) 0 0 0 0 0
07-12-2019 17.2 (15:20) 4.5 (00:00) 10.9 3.33 (15:50) 1.11 (15:50) 0 0 0 0 0
06-12-2019 17.8 (16:10) 3.9 (00:00) 10.8 5.56 (20:40) 1.39 (20:10) 0 0 0 0 0
05-12-2019 14.3 (15:00) 2.8 (00:00) 8.6 3.89 (20:30) 1.39 (14:50) 0 0 0 0 0
04-12-2019 15.4 (15:40) 4.1 (00:00) 9.7 3.61 (15:30) 1.39 (17:40) 2 0 0 1.8 0.2
03-12-2019 14.9 (15:20) 6.2 (00:00) 10.5 8.89 (15:40) 3.61 (15:40) 0.2 0 0.2 0 0
02-12-2019 15 (16:10) 5.8 (00:00) 10.4 4.17 (15:50) 1.39 (15:20) 0 0 0 0 0
01-12-2019 16.3 (15:50) 7 (00:00) 11.6 4.72 (19:30) 1.67 (14:00) 2.6 0 0 0 2.6
30-11-2019 22.1 (15:40) 5.7 (00:00) 13.9 3.33 (16:40) 1.39 (16:40) 0 0 0 0 0
29-11-2019 19.7 (15:50) 4.8 (00:00) 12.3 2.5 (12:00) 1.67 (20:20) 0 0 0 0 0
28-11-2019 17.1 (16:50) 5.7 (00:00) 11.4 3.33 (14:40) 1.11 (19:10) 0 0 0 0 0
27-11-2019 17.7 (15:30) 9.4 (00:00) 13.6 6.39 (16:00) 2.78 (15:50) 0.2 0 0.2 0 0
26-11-2019 17.4 (15:50) 7.2 (00:00) 12.3 2.5 (10:50) 1.11 (14:30) 0 0 0 0 0
25-11-2019 13.2 (13:30) 4.6 (00:00) 8.9 3.06 (21:00) 1.11 (04:00) 0 0 0 0 0
24-11-2019 13.9 (15:40) 2.8 (00:00) 8.3 4.17 (18:00) 1.67 (16:20) 0 0 0 0 0
23-11-2019 12.1 (14:50) 6.8 (00:00) 9.5 11.67 (03:20) 3.89 (14:40) 0.6 0.2 0.2 0.2 0
22-11-2019 12.9 (12:50) 8.9 (00:00) 10.9 14.17 (21:10) 4.17 (21:10) 24.6 0.4 8 4.6 11.6
21-11-2019 11.3 (16:20) 6.8 (00:00) 9.1 4.44 (16:40) 1.11 (16:50) 8.8 0.4 0.8 1.8 5.8
20-11-2019 11.3 (11:40) 2 (00:00) 6.7 3.89 (13:30) 1.39 (10:10) 2.8 0 0 2.6 0.2
19-11-2019 12.8 (15:40) 1.3 (00:00) 7.1 2.5 (15:40) 1.11 (15:50) 0 0 0 0 0
18-11-2019 13.6 (14:50) 3.5 (00:00) 8.6 6.39 (15:10) 2.5 (15:30) 15 14.6 0.4 0 0
17-11-2019 9.3 (23:59) 0.3 (00:00) 4.8 3.89 (08:20) 1.39 (08:20) 1.4 0 0 0.2 1.2
16-11-2019 12.9 (16:00) 0.1 (00:00) 6.5 5.28 (17:10) 2.22 (16:50) 0 0 0 0 0
15-11-2019 9.7 (13:30) 3.5 (00:00) 6.6 5.56 (17:30) 2.22 (17:40) 0 0 0 0 0

Gráficas

Temp. máximas Temp. mínimas Temp. medias Precipitaciones Rachas de viento máximas Velocidades máximas media en intervalos de 10 minutos

Datos horarios

Fecha y hora oficial Temperatura (ºC) Velocidad del viento (km/h) Dirección del viento Racha (km/h) Dirección de racha Precipitación (mm) Presión (hPa) Tendencia (hPa) Humedad (%)
2019-12-14 23:00:00 7.2 0 Calma 4 Sur 0 -- -- 87
2019-12-14 22:00:00 7.7 0 Calma 3 Sur 0 -- -- 86
2019-12-14 21:00:00 7.8 0 Calma 4 Sudeste 0 -- -- 88
2019-12-14 20:00:00 7.3 0 Calma 5 Sudeste 0 -- -- 89
2019-12-14 19:00:00 8.3 0 Calma 6 Este 0 -- -- 84
2019-12-14 18:00:00 10.4 0 Calma 6 Oeste 0 -- -- 77
2019-12-14 17:00:00 12.7 2 Noroeste 9 Noroeste 0 -- -- 68
2019-12-14 16:00:00 13.3 4 Oeste 12 Noroeste 0 -- -- 64
2019-12-14 15:00:00 12.5 4 Oeste 10 Noroeste 0 -- -- 68
2019-12-14 14:00:00 12.1 4 Noroeste 11 Noroeste 0 -- -- 67
2019-12-14 13:00:00 12.2 3 Nordeste 10 Nordeste 0 -- -- 67
2019-12-14 12:00:00 10.4 4 Norte 7 Norte 0 -- -- 75
2019-12-14 11:00:00 10.2 0 Calma 3 Noroeste 0 -- -- 80
2019-12-14 10:00:00 9 0 Calma 3 Oeste 0.2 -- -- 87
2019-12-14 09:00:00 8.2 0 Calma 4 Sudeste 0 -- -- 90
2019-12-14 08:00:00 7.6 0 Calma 4 Sudeste 0 -- -- 91
2019-12-14 07:00:00 6.9 0 Calma 3 Sudeste 0 -- -- 93
2019-12-14 06:00:00 6.4 0 Calma 3 Sudeste 0 -- -- 94
2019-12-14 05:00:00 5.9 0 Calma 4 Este 0 -- -- 93
2019-12-14 04:00:00 6.3 0 Calma 6 Este 0 -- -- 90
2019-12-14 03:00:00 7.7 2 Norte 8 Nordeste 0 -- -- 87
2019-12-14 02:00:00 6.8 2 Este 6 Este 0 -- -- 93
2019-12-14 01:00:00 7.3 2 Este 5 Este 0 -- -- 91
2019-12-14 00:00:00 8 3 Norte 6 Noroeste 0 -- -- 87
2019-12-13 23:00:00 9.2 2 Este 8 Nordeste 0 -- -- 82
2019-12-13 22:00:00 10.1 0 Calma 13 Nordeste 0 -- -- 81
2019-12-13 21:00:00 10.7 3 Nordeste 17 Nordeste 0 -- -- 79
2019-12-13 20:00:00 10.5 0 Calma 10 Nordeste 0 -- -- 82
2019-12-13 19:00:00 10.3 2 Este 7 Nordeste 0 -- -- 83
2019-12-13 18:00:00 10.9 0 Calma 6 Nordeste 0 -- -- 82
2019-12-13 17:00:00 11.5 2 Nordeste 5 Norte 0 -- -- 79
2019-12-13 16:00:00 11.6 2 Este 9 Este 0 -- -- 79
2019-12-13 15:00:00 11.5 2 Nordeste 10 Nordeste 0 -- -- 80
2019-12-13 14:00:00 11.1 0 Calma 11 Norte 0 -- -- 83
2019-12-13 13:00:00 11 2 Norte 10 Noroeste 0 -- -- 82
2019-12-13 12:00:00 10.5 3 Norte 10 Noroeste 0 -- -- 89
2019-12-13 11:00:00 9.5 2 Norte 14 Norte 0 -- -- 94
2019-12-13 10:00:00 9.4 4 Norte 10 Norte 0 -- -- 95
2019-12-13 09:00:00 9.5 0 Calma 11 Noroeste 0.2 -- -- 96
2019-12-13 08:00:00 9.5 5 Nordeste 15 Este 0.2 -- -- 96
2019-12-13 07:00:00 9.2 3 Este 6 Este 1 -- -- 96
2019-12-13 06:00:00 9.1 3 Sudeste 8 Sudeste 0.6 -- -- 96
2019-12-13 05:00:00 8.7 2 Sudeste 7 Sur 1 -- -- 96
2019-12-13 04:00:00 8.2 3 Sur 6 Sudeste 0.6 -- -- 95
2019-12-13 03:00:00 8 0 Calma 8 Sudeste 0.8 -- -- 95
2019-12-13 02:00:00 7.9 0 Calma 6 Sur 0.4 -- -- 95
2019-12-13 01:00:00 7.5 2 Sur 6 Sur 0.6 -- -- 94
2019-12-13 00:00:00 7.3 2 Sur 5 Sudeste 0 -- -- 92
2019-12-12 23:00:00 7.6 2 Sudeste 8 Sudoeste 0 -- -- 87
2019-12-12 22:00:00 8.1 2 Sudeste 7 Oeste 0 -- -- 81
2019-12-12 21:00:00 8.9 3 Nordeste 15 Nordeste 0 -- -- 72
2019-12-12 20:00:00 8.7 5 Nordeste 16 Nordeste 0 -- -- 72
2019-12-12 19:00:00 8.5 2 Este 6 Nordeste 0 -- -- 69
2019-12-12 18:00:00 8.6 4 Norte 21 Norte 0 -- -- 68
2019-12-12 17:00:00 9 6 Norte 21 Norte 0 -- -- 65
2019-12-12 16:00:00 9.8 9 Norte 25 Noroeste 0 -- -- 59
2019-12-12 15:00:00 10 6 Noroeste 19 Norte 0 -- -- 58
2019-12-12 14:00:00 10.3 5 Norte 16 Norte 0 -- -- 55
2019-12-12 13:00:00 10.6 3 Noroeste 10 Oeste 0 -- -- 56
2019-12-12 12:00:00 8 4 Noroeste 13 Noroeste 0 -- -- 67
2019-12-12 11:00:00 6.3 4 Oeste 8 Oeste 0 -- -- 82
2019-12-12 10:00:00 4.6 3 Sur 8 Sudeste 0 -- -- 90
2019-12-12 09:00:00 4.1 0 Calma 8 Oeste 0 -- -- 90
2019-12-12 08:00:00 4 0 Calma 9 Sur 0 -- -- 88
2019-12-12 07:00:00 4.8 0 Calma 6 Sudeste 0 -- -- 85
2019-12-12 06:00:00 4.5 0 Calma 6 Sur 0 -- -- 86
2019-12-12 05:00:00 4.8 0 Calma 4 Sudeste 0 -- -- 88
2019-12-12 04:00:00 4.5 0 Calma 5 Noroeste 0 -- -- 90
2019-12-12 03:00:00 3.4 0 Calma 5 Nordeste 0 -- -- 91
2019-12-12 02:00:00 4.2 0 Calma 6 Este 0 -- -- 88
2019-12-12 01:00:00 4.4 2 Este 5 Este 0 -- -- 88
2019-12-12 00:00:00 5.1 0 Calma 4 Nordeste 0 -- -- 86
2019-12-11 23:00:00 5.2 0 Calma 7 Norte 0 -- -- 82
2019-12-11 22:00:00 7 3 Norte 5 Norte 0 -- -- 76
2019-12-11 21:00:00 7.1 2 Nordeste 8 Nordeste 0 -- -- 75
2019-12-11 20:00:00 8.1 3 Norte 8 Norte 0 -- -- 73
2019-12-11 19:00:00 9.3 4 Norte 14 Norte 0 -- -- 71
2019-12-11 18:00:00 10.6 2 Nordeste 14 Noroeste 0 -- -- 63
2019-12-11 17:00:00 12.4 5 Norte 15 Noroeste 0 -- -- 48
2019-12-11 16:00:00 14.2 0 Calma 9 Noroeste 0 -- -- 33
2019-12-11 15:00:00 13.9 0 Calma 6 Oeste 0 -- -- 36
2019-12-11 14:00:00 12.5 0 Calma 9 Sudoeste 0 -- -- 46
2019-12-11 13:00:00 12.8 2 Noroeste 8 Noroeste 0 -- -- 46
2019-12-11 12:00:00 9.7 2 Noroeste 7 Oeste 0 -- -- 54
2019-12-11 11:00:00 7.1 0 Calma 6 Oeste 0 -- -- 67
2019-12-11 10:00:00 4.5 0 Calma 3 Sur 0 -- -- 72
2019-12-11 09:00:00 3.6 0 Calma 3 Sudeste 0 -- -- 75
2019-12-11 08:00:00 3.1 0 Calma 2 Este 0 -- -- 76
2019-12-11 07:00:00 3.5 0 Calma 3 Sudeste 0 -- -- 74
2019-12-11 06:00:00 4.3 0 Calma 8 Norte 0 -- -- 68
2019-12-11 05:00:00 4.2 0 Calma 5 Noroeste 0 -- -- 70
2019-12-11 04:00:00 4.7 0 Calma 5 Sudeste 0 -- -- 68
2019-12-11 03:00:00 5.3 0 Calma 7 Este 0 -- -- 64
2019-12-11 02:00:00 5.2 0 Calma 3 Sudeste 0 -- -- 68
2019-12-11 01:00:00 5.6 2 Sudeste 3 Este 0 -- -- 64
2019-12-11 00:00:00 7.2 0 Calma 5 Este 0 -- -- 56
2019-12-10 23:00:00 8.1 0 Calma 5 Sudeste 0 -- -- 50
2019-12-10 22:00:00 8.2 3 Este 5 Este 0 -- -- 53
2019-12-10 21:00:00 9.1 0 Calma 9 Este 0 -- -- 54
2019-12-10 20:00:00 10.1 4 Este 9 Este 0 -- -- 48
2019-12-10 19:00:00 11.3 4 Este 8 Este 0 -- -- 45
2019-12-10 18:00:00 12.4 2 Este 5 Oeste 0 -- -- 48
2019-12-10 17:00:00 19 0 Calma 8 Noroeste 0 -- -- 26
2019-12-10 16:00:00 19.6 3 Sudoeste 7 Sudoeste 0 -- -- 28
2019-12-10 15:00:00 16.9 2 Noroeste 10 Oeste 0 -- -- 36
2019-12-10 14:00:00 15.6 4 Sudoeste 11 Sudoeste 0 -- -- 33
2019-12-10 13:00:00 17.2 2 Sur 7 Sudeste 0 -- -- 32
2019-12-10 12:00:00 11.7 3 Sudoeste 8 Sur 0 -- -- 45
2019-12-10 11:00:00 8.4 0 Calma 4 Sur 0 -- -- 67
2019-12-10 10:00:00 5.6 0 Calma 3 Noroeste 0 -- -- 78
2019-12-10 09:00:00 4.4 2 Este 8 Este 0 -- -- 84
2019-12-10 08:00:00 4 2 Sudeste 4 Este 0 -- -- 82
2019-12-10 07:00:00 4.1 0 Calma 4 Este 0 -- -- 84
2019-12-10 06:00:00 5.4 0 Calma 6 Sudeste 0 -- -- 78
2019-12-10 05:00:00 5.8 0 Calma 4 Este 0 -- -- 84
2019-12-10 04:00:00 6.3 2 Sudeste 5 Este 0 -- -- 80
2019-12-10 03:00:00 6.7 0 Calma 4 Este 0 -- -- 89
2019-12-10 02:00:00 7.8 0 Calma 6 Nordeste 0 -- -- 87
2019-12-10 01:00:00 8 0 Calma 5 Este 0 -- -- 89
2019-12-10 00:00:00 8.4 0 Calma 4 Este 0 -- -- 89
2019-12-09 23:00:00 9.1 0 Calma 5 Este 0 -- -- 88
2019-12-09 22:00:00 9 0 Calma 4 Este 0 -- -- 87
2019-12-09 21:00:00 9.2 2 Este 5 Este 0 -- -- 87
2019-12-09 20:00:00 9.5 2 Este 4 Este 0 -- -- 81
2019-12-09 19:00:00 10.4 3 Este 6 Este 0 -- -- 81
2019-12-09 18:00:00 12.8 0 Calma 6 Oeste 0 -- -- 73
2019-12-09 17:00:00 15.9 3 Oeste 8 Noroeste 0 -- -- 60
2019-12-09 16:00:00 18.1 2 Sudoeste 9 Oeste 0 -- -- 53
2019-12-09 15:00:00 15.9 2 Oeste 8 Oeste 0 -- -- 59
2019-12-09 14:00:00 13.9 3 Oeste 9 Sudoeste 0 -- -- 66
2019-12-09 13:00:00 14.7 0 Calma 8 Sur 0 -- -- 63
2019-12-09 12:00:00 11.8 3 Sudoeste 9 Sur 0 -- -- 74
2019-12-09 11:00:00 9.9 2 Sur 7 Sur 0 -- -- 83
2019-12-09 10:00:00 8.3 0 Calma 6 Sur 0 -- -- 89
2019-12-09 09:00:00 5.9 0 Calma 4 Sudeste 0 -- -- 93
2019-12-09 08:00:00 5.8 0 Calma 6 Sudeste 0 -- -- 91
2019-12-09 07:00:00 6.3 0 Calma 8 Este 0 -- -- 90
2019-12-09 06:00:00 6.2 0 Calma 4 Este 0 -- -- 88
2019-12-09 05:00:00 6.4 3 Este 6 Este 0 -- -- 87
2019-12-09 04:00:00 6.9 2 Nordeste 6 Sudeste 0 -- -- 86
2019-12-09 03:00:00 7.5 0 Calma 5 Noroeste 0 -- -- 83
2019-12-09 02:00:00 6.8 0 Calma 5 Sudeste 0 -- -- 85
2019-12-09 01:00:00 7.9 0 Calma 5 Este 0 -- -- 81
2019-12-09 00:00:00 8.7 0 Calma 10 Nordeste 0 -- -- 79
2019-12-08 23:00:00 8.5 3 Norte 6 Norte 0 -- -- 80
2019-12-08 22:00:00 9 0 Calma 3 Sudeste 0 -- -- 78
2019-12-08 21:00:00 9.8 0 Calma 4 Este 0 -- -- 76
2019-12-08 20:00:00 9.8 0 Calma 4 Sudeste 0 -- -- 76
2019-12-08 19:00:00 10.4 0 Calma 6 Sudeste 0 -- -- 73
2019-12-08 18:00:00 11 2 Este 5 Este 0 -- -- 71
2019-12-08 17:00:00 15 2 Noroeste 7 Oeste 0 -- -- 55
2019-12-08 16:00:00 14.8 4 Oeste 9 Oeste 0 -- -- 54
2019-12-08 15:00:00 14.1 3 Oeste 10 Oeste 0 -- -- 55
2019-12-08 14:00:00 12.1 4 Noroeste 9 Norte 0 -- -- 62
2019-12-08 13:00:00 13.1 2 Oeste 6 Oeste 0 -- -- 62
2019-12-08 12:00:00 9.4 3 Oeste 6 Oeste 0 -- -- 73
2019-12-08 11:00:00 7.2 4 Noroeste 9 Noroeste 0 -- -- 81
2019-12-08 10:00:00 4.4 0 Calma 3 Noroeste 0 -- -- 94
2019-12-08 09:00:00 3.7 0 Calma 2 Sudeste 0 -- -- 94
2019-12-08 08:00:00 3.4 0 Calma 2 Sudeste 0 -- -- 93
2019-12-08 07:00:00 3.7 0 Calma 3 Norte 0 -- -- 93
2019-12-08 06:00:00 4.6 0 Calma 5 Este 0 -- -- 92
2019-12-08 05:00:00 4.8 2 Nordeste 3 Norte 0 -- -- 90
2019-12-08 04:00:00 5.2 0 Calma 6 Este 0 -- -- 89
2019-12-08 03:00:00 5.7 3 Este 5 Este 0 -- -- 88
2019-12-08 02:00:00 5.7 2 Este 4 Este 0 -- -- 86
2019-12-08 01:00:00 6.9 0 Calma 6 Este 0 -- -- 82
2019-12-08 00:00:00 7.1 0 Calma 6 Este 0 -- -- 81
2019-12-07 23:00:00 7.2 0 Calma 5 Este 0 -- -- 82
2019-12-07 22:00:00 8 2 Sudeste 5 Este 0 -- -- 79
2019-12-07 21:00:00 9 4 Este 6 Este 0 -- -- 77
2019-12-07 20:00:00 9 2 Este 6 Este 0 -- -- 77
2019-12-07 19:00:00 10.7 3 Este 6 Este 0 -- -- 69
2019-12-07 18:00:00 11.7 0 Calma 6 Oeste 0 -- -- 64
2019-12-07 17:00:00 15.3 4 Oeste 9 Noroeste 0 -- -- 50
2019-12-07 16:00:00 16 2 Sudoeste 12 Oeste 0 -- -- 49
2019-12-07 15:00:00 16 2 Sudoeste 8 Sudoeste 0 -- -- 49
2019-12-07 14:00:00 13.7 3 Sudoeste 9 Oeste 0 -- -- 55
2019-12-07 13:00:00 14.9 2 Sudoeste 6 Sur 0 -- -- 55
2019-12-07 12:00:00 11.3 3 Noroeste 9 Noroeste 0 -- -- 70
2019-12-07 11:00:00 8.7 0 Calma 4 Noroeste 0 -- -- 79
2019-12-07 10:00:00 5.9 0 Calma 2 Oeste 0 -- -- 93
2019-12-07 09:00:00 4.7 0 Calma 4 Sudeste 0 -- -- 94
2019-12-07 08:00:00 4.5 0 Calma 3 Sudeste 0 -- -- 93
2019-12-07 07:00:00 5 0 Calma 3 Este 0 -- -- 92
2019-12-07 06:00:00 5.6 0 Calma 2 Sudeste 0 -- -- 91
2019-12-07 05:00:00 5.9 0 Calma 3 Nordeste 0 -- -- 90
2019-12-07 04:00:00 5.7 0 Calma 3 Sudeste 0 -- -- 90
2019-12-07 03:00:00 6.4 0 Calma 3 Noroeste 0 -- -- 87
2019-12-07 02:00:00 6.7 0 Calma 6 Sur 0 -- -- 86
2019-12-07 01:00:00 6.5 0 Calma 5 Este 0 -- -- 85
2019-12-07 00:00:00 7.4 0 Calma 9 Norte 0 -- -- 82
2019-12-06 23:00:00 8.5 2 Norte 9 Nordeste 0 -- -- 76
2019-12-06 22:00:00 8.6 0 Calma 7 Oeste 0 -- -- 77
2019-12-06 21:00:00 10.3 3 Norte 20 Este 0 -- -- 69
2019-12-06 20:00:00 11.2 5 Este 15 Nordeste 0 -- -- 66
2019-12-06 19:00:00 11.6 5 Este 13 Sur 0 -- -- 66
2019-12-06 18:00:00 12.5 2 Este 6 Este 0 -- -- 65
2019-12-06 17:00:00 16.5 3 Sur 11 Sur 0 -- -- 54
2019-12-06 16:00:00 17.3 2 Sudoeste 9 Oeste 0 -- -- 51
2019-12-06 15:00:00 16.1 3 Sudoeste 9 Oeste 0 -- -- 53
2019-12-06 14:00:00 14.1 3 Sudoeste 10 Oeste 0 -- -- 59
2019-12-06 13:00:00 14.6 3 Sudoeste 9 Sur 0 -- -- 57
2019-12-06 12:00:00 11.8 2 Sudoeste 6 Sudoeste 0 -- -- 66
2019-12-06 11:00:00 8.3 0 Calma 6 Oeste 0 -- -- 78
2019-12-06 10:00:00 6.3 0 Calma 5 Nordeste 0 -- -- 90
2019-12-06 09:00:00 4.5 0 Calma 5 Norte 0 -- -- 92
2019-12-06 08:00:00 4 0 Calma 4 Sudeste 0 -- -- 92
2019-12-06 07:00:00 5.3 2 Este 6 Este 0 -- -- 88
2019-12-06 06:00:00 5 0 Calma 4 Este 0 -- -- 89
2019-12-06 05:00:00 5.6 0 Calma 6 Este 0 -- -- 88
2019-12-06 04:00:00 5.4 2 Norte 5 Norte 0 -- -- 88
2019-12-06 03:00:00 5.9 0 Calma 5 Este 0 -- -- 87
2019-12-06 02:00:00 6.4 3 Nordeste 6 Este 0 -- -- 86
2019-12-06 01:00:00 6.4 0 Calma 10 Nordeste 0 -- -- 83
2019-12-06 00:00:00 7.6 2 Nordeste 11 Noroeste 0 -- -- 79
2019-12-05 23:00:00 8 2 Este 11 Este 0 -- -- 76
2019-12-05 22:00:00 8.3 2 Nordeste 8 Este 0 -- -- 76
2019-12-05 21:00:00 9.6 4 Nordeste 14 Este 0 -- -- 71
2019-12-05 20:00:00 9.6 4 Este 12 Sudeste 0 -- -- 73
2019-12-05 19:00:00 10.4 2 Este 9 Este 0 -- -- 69
2019-12-05 18:00:00 10.6 0 Calma 5 Oeste 0 -- -- 73
2019-12-05 17:00:00 12.1 0 Calma 7 Sur 0 -- -- 62
2019-12-05 16:00:00 13.4 2 Sudoeste 8 Sudoeste 0 -- -- 56
2019-12-05 15:00:00 14.3 4 Noroeste 11 Oeste 0 -- -- 56
2019-12-05 14:00:00 12.9 4 Noroeste 12 Noroeste 0 -- -- 61
2019-12-05 13:00:00 12.6 2 Noroeste 8 Noroeste 0 -- -- 62
2019-12-05 12:00:00 8.5 3 Noroeste 9 Norte 0 -- -- 86
2019-12-05 11:00:00 5.8 2 Sudoeste 8 Sudoeste 0 -- -- 95
2019-12-05 10:00:00 4.1 0 Calma 8 Norte 0 -- -- 96
2019-12-05 09:00:00 2.8 0 Calma 7 Sur 0 -- -- 97
2019-12-05 08:00:00 3.6 3 Nordeste 9 Nordeste 0 -- -- 96
2019-12-05 07:00:00 4.3 0 Calma 4 Nordeste 0 -- -- 96
2019-12-05 06:00:00 4.4 2 Sur 5 Sur 0 -- -- 96
2019-12-05 05:00:00 4.8 0 Calma 3 Noroeste 0 -- -- 97
2019-12-05 04:00:00 3.6 0 Calma 3 Este 0 -- -- 97
2019-12-05 03:00:00 4.4 0 Calma 4 Este 0 -- -- 96
2019-12-05 02:00:00 5 0 Calma 4 Este 0 -- -- 96
2019-12-05 01:00:00 5.6 0 Calma 4 Este 0 -- -- 95
2019-12-05 00:00:00 5.9 0 Calma 4 Sudeste 0 -- -- 95
2019-12-04 23:00:00 5.7 0 Calma 3 Norte 0 -- -- 95
2019-12-04 22:00:00 6.2 0 Calma 4 Este 0 -- -- 94
2019-12-04 21:00:00 7.1 0 Calma 4 Este 0 -- -- 94
2019-12-04 20:00:00 7.6 0 Calma 6 Este 0 -- -- 93
2019-12-04 19:00:00 7.7 0 Calma 5 Sudeste 0.2 -- -- 91
2019-12-04 18:00:00 8.4 0 Calma 13 Norte 1.8 -- -- 86
2019-12-04 17:00:00 12.4 3 Oeste 12 Noroeste 0 -- -- 61
2019-12-04 16:00:00 13.3 4 Sudoeste 13 Sudoeste 0 -- -- 60
2019-12-04 15:00:00 10.6 2 Oeste 12 Noroeste 0 -- -- 67
2019-12-04 14:00:00 11.8 0 Calma 8 Este 0 -- -- 67
2019-12-04 13:00:00 10.4 2 Oeste 6 Oeste 0 -- -- 70
2019-12-04 12:00:00 8.8 0 Calma 9 Noroeste 0 -- -- 76
2019-12-04 11:00:00 8.5 0 Calma 7 Noroeste 0 -- -- 79
2019-12-04 10:00:00 7.8 0 Calma 6 Sudeste 0 -- -- 81
2019-12-04 09:00:00 5.6 0 Calma 4 Este 0 -- -- 89
2019-12-04 08:00:00 5.8 2 Nordeste 4 Oeste 0 -- -- 85
2019-12-04 07:00:00 6 0 Calma 3 Norte 0 -- -- 85
2019-12-04 06:00:00 5.7 2 Este 6 Este 0 -- -- 86
2019-12-04 05:00:00 4.3 0 Calma 5 Este 0 -- -- 90
2019-12-04 04:00:00 4.5 2 Este 7 Sudeste 0 -- -- 90
2019-12-04 03:00:00 5.1 2 Sudeste 6 Sudeste 0 -- -- 88
2019-12-04 02:00:00 5 0 Calma 6 Este 0 -- -- 88
2019-12-04 01:00:00 5.8 2 Este 5 Sudeste 0 -- -- 85
2019-12-04 00:00:00 6.3 0 Calma 9 Noroeste 0 -- -- 83
2019-12-03 23:00:00 7.9 2 Nordeste 14 Nordeste 0 -- -- 72
2019-12-03 22:00:00 8 5 Nordeste 19 Nordeste 0 -- -- 72
2019-12-03 21:00:00 8.9 6 Este 23 Nordeste 0 -- -- 70
2019-12-03 20:00:00 9.5 6 Este 21 Nordeste 0 -- -- 69
2019-12-03 19:00:00 9.6 6 Este 23 Este 0 -- -- 70
2019-12-03 18:00:00 10 7 Este 27 Norte 0 -- -- 67
2019-12-03 17:00:00 12 7 Nordeste 29 Nordeste 0 -- -- 62
2019-12-03 16:00:00 13.1 10 Nordeste 32 Nordeste 0 -- -- 59
2019-12-03 15:00:00 13.9 7 Nordeste 17 Nordeste 0 -- -- 57
2019-12-03 14:00:00 13.8 4 Sur 19 Nordeste 0 -- -- 58
2019-12-03 13:00:00 13.1 6 Nordeste 21 Nordeste 0 -- -- 61
2019-12-03 12:00:00 12.7 4 Sudoeste 17 Nordeste 0 -- -- 62
2019-12-03 11:00:00 10.3 5 Nordeste 14 Norte 0 -- -- 67
2019-12-03 10:00:00 9 4 Este 28 Nordeste 0.2 -- -- 73
2019-12-03 09:00:00 8.8 6 Nordeste 16 Nordeste 0 -- -- 73
2019-12-03 08:00:00 8.7 2 Este 20 Noroeste 0 -- -- 76
2019-12-03 07:00:00 9.1 5 Norte 22 Nordeste 0 -- -- 76
2019-12-03 06:00:00 7 2 Nordeste 6 Sur 0 -- -- 87
2019-12-03 05:00:00 7.2 0 Calma 13 Nordeste 0 -- -- 87
2019-12-03 04:00:00 6.8 0 Calma 4 Sur 0 -- -- 90
2019-12-03 03:00:00 7.2 0 Calma 4 Sur 0 -- -- 88
2019-12-03 02:00:00 7.2 0 Calma 4 Este 0 -- -- 87
2019-12-03 01:00:00 7.7 0 Calma 4 Este 0 -- -- 86
2019-12-03 00:00:00 8.3 0 Calma 4 Sudeste 0 -- -- 84
2019-12-02 23:00:00 8 0 Calma 3 Nordeste 0 -- -- 87
2019-12-02 22:00:00 7.3 0 Calma 4 Este 0 -- -- 88
2019-12-02 21:00:00 7.1 0 Calma 4 Oeste 0 -- -- 87
2019-12-02 20:00:00 8.2 0 Calma 8 Nordeste 0 -- -- 81
2019-12-02 19:00:00 9.1 2 Nordeste 9 Este 0 -- -- 77
2019-12-02 18:00:00 9.9 0 Calma 9 Noroeste 0 -- -- 72
2019-12-02 17:00:00 13.1 2 Oeste 10 Oeste 0 -- -- 58
2019-12-02 16:00:00 14.7 4 Sudoeste 15 Oeste 0 -- -- 59
2019-12-02 15:00:00 12.4 3 Sudoeste 9 Sudoeste 0 -- -- 62
2019-12-02 14:00:00 12.9 4 Oeste 12 Oeste 0 -- -- 60
2019-12-02 13:00:00 13.1 2 Noroeste 9 Oeste 0 -- -- 61
2019-12-02 12:00:00 11.9 3 Noroeste 8 Oeste 0 -- -- 66
2019-12-02 11:00:00 9.6 2 Noroeste 9 Nordeste 0 -- -- 85
2019-12-02 10:00:00 7.5 3 Norte 8 Norte 0 -- -- 94
2019-12-02 09:00:00 6.8 0 Calma 5 Este 0 -- -- 95
2019-12-02 08:00:00 6.4 2 Este 6 Nordeste 0 -- -- 95
2019-12-02 07:00:00 6.2 2 Este 5 Este 0 -- -- 96
2019-12-02 06:00:00 6.7 0 Calma 9 Nordeste 0 -- -- 96
2019-12-02 05:00:00 6.8 4 Este 11 Este 0 -- -- 97
2019-12-02 04:00:00 6.6 2 Norte 5 Norte 0 -- -- 96
2019-12-02 03:00:00 5.8 0 Calma 5 Este 0 -- -- 96
2019-12-02 02:00:00 6.2 3 Este 5 Nordeste 0 -- -- 96
2019-12-02 01:00:00 6.4 2 Este 4 Este 0 -- -- 96
2019-12-02 00:00:00 7.1 0 Calma 8 Nordeste 0 -- -- 95
2019-12-01 23:00:00 8 0 Calma 5 Noroeste 0.2 -- -- 94
2019-12-01 22:00:00 7.5 0 Calma 4 Este 0 -- -- 94
2019-12-01 21:00:00 8 0 Calma 8 Norte 0.8 -- -- 92
2019-12-01 20:00:00 8.5 4 Noroeste 17 Noroeste 1.6 -- -- 89
2019-12-01 19:00:00 10.4 2 Noroeste 7 Noroeste 0 -- -- 70
2019-12-01 18:00:00 11.3 2 Noroeste 11 Noroeste 0 -- -- 63
2019-12-01 17:00:00 14.4 3 Sudoeste 13 Oeste 0 -- -- 48
2019-12-01 16:00:00 15.4 5 Sur 15 Sudoeste 0 -- -- 45
2019-12-01 15:00:00 15.1 5 Sudoeste 15 Oeste 0 -- -- 44
2019-12-01 14:00:00 12.6 6 Noroeste 14 Oeste 0 -- -- 50
2019-12-01 13:00:00 14.1 5 Noroeste 16 Oeste 0 -- -- 47
2019-12-01 12:00:00 12.7 5 Noroeste 14 Noroeste 0 -- -- 54
2019-12-01 11:00:00 10.6 4 Oeste 11 Noroeste 0 -- -- 72
2019-12-01 10:00:00 8.4 3 Oeste 10 Oeste 0 -- -- 90
2019-12-01 09:00:00 8.1 2 Sudoeste 9 Sudoeste 0 -- -- 92
2019-12-01 08:00:00 9.5 2 Sur 8 Oeste 0 -- -- 93
2019-12-01 07:00:00 9.8 0 Calma 8 Sudeste 0 -- -- 93
2019-12-01 06:00:00 9.7 0 Calma 3 Oeste 0 -- -- 90
2019-12-01 05:00:00 10.5 2 Noroeste 9 Oeste 0 -- -- 83
2019-12-01 04:00:00 10.3 0 Calma 10 Sur 0 -- -- 83
2019-12-01 03:00:00 10 0 Calma 5 Sudeste 0 -- -- 86
2019-12-01 02:00:00 9.1 0 Calma 3 Este 0 -- -- 87
2019-12-01 01:00:00 9.6 0 Calma 4 Sur 0 -- -- 85
2019-12-01 00:00:00 10.8 0 Calma 5 Sudoeste 0 -- -- 83
2019-11-30 23:00:00 11.1 0 Calma 8 Sur 0 -- -- 84
2019-11-30 22:00:00 11 2 Sur 7 Sudeste 0 -- -- 86
2019-11-30 21:00:00 10.4 3 Sur 10 Sur 0 -- -- 85
2019-11-30 20:00:00 11.6 3 Sur 8 Sudoeste 0 -- -- 81
2019-11-30 19:00:00 13 2 Sudoeste 5 Oeste 0 -- -- 74
2019-11-30 18:00:00 15.3 0 Calma 9 Noroeste 0 -- -- 62
2019-11-30 17:00:00 19.1 3 Noroeste 12 Noroeste 0 -- -- 42
2019-11-30 16:00:00 21.5 5 Oeste 9 Oeste 0 -- -- 32
2019-11-30 15:00:00 21 3 Noroeste 7 Noroeste 0 -- -- 39
2019-11-30 14:00:00 17.4 3 Noroeste 6 Oeste 0 -- -- 55
2019-11-30 13:00:00 18.8 2 Oeste 6 Oeste 0 -- -- 53
2019-11-30 12:00:00 14.9 2 Oeste 6 Noroeste 0 -- -- 64
2019-11-30 11:00:00 11.8 0 Calma 4 Noroeste 0 -- -- 70
2019-11-30 10:00:00 7.9 0 Calma 4 Noroeste 0 -- -- 86
2019-11-30 09:00:00 6.3 0 Calma 5 Este 0 -- -- 93
2019-11-30 08:00:00 6 0 Calma 3 Nordeste 0 -- -- 93
2019-11-30 07:00:00 6.3 0 Calma 2 Sudeste 0 -- -- 93
2019-11-30 06:00:00 6.4 0 Calma 2 Este 0 -- -- 92
2019-11-30 05:00:00 7.3 0 Calma 2 Este 0 -- -- 91
2019-11-30 04:00:00 7.6 2 Este 4 Este 0 -- -- 89
2019-11-30 03:00:00 8 2 Este 4 Este 0 -- -- 89
2019-11-30 02:00:00 8.2 0 Calma 4 Este 0 -- -- 88
2019-11-30 01:00:00 8.1 0 Calma 3 Sudeste 0 -- -- 88
2019-11-30 00:00:00 9.7 0 Calma 4 Este 0 -- -- 86
2019-11-29 23:00:00 9.5 0 Calma 4 Este 0 -- -- 88
2019-11-29 22:00:00 9.3 0 Calma 6 Este 0 -- -- 85
2019-11-29 21:00:00 11.2 4 Este 8 Este 0 -- -- 80
2019-11-29 20:00:00 11.9 5 Este 8 Este 0 -- -- 77
2019-11-29 19:00:00 11.7 4 Este 5 Este 0 -- -- 79
2019-11-29 18:00:00 13.5 0 Calma 6 Oeste 0 -- -- 71
2019-11-29 17:00:00 16.9 3 Oeste 8 Oeste 0 -- -- 56
2019-11-29 16:00:00 19.5 3 Oeste 6 Sur 0 -- -- 48
2019-11-29 15:00:00 18.6 3 Sudoeste 8 Sudoeste 0 -- -- 50
2019-11-29 14:00:00 14.4 2 Noroeste 8 Sudoeste 0 -- -- 60
2019-11-29 13:00:00 15.7 3 Sudoeste 9 Sudoeste 0 -- -- 58
2019-11-29 12:00:00 13.4 4 Sudoeste 9 Sudoeste 0 -- -- 69
2019-11-29 11:00:00 9.2 0 Calma 5 Noroeste 0 -- -- 90
2019-11-29 10:00:00 6.5 2 Noroeste 5 Sudeste 0 -- -- 96
2019-11-29 09:00:00 5.3 0 Calma 3 Nordeste 0 -- -- 96
2019-11-29 08:00:00 4.8 0 Calma 2 Nordeste 0 -- -- 96
2019-11-29 07:00:00 5.1 0 Calma 3 Este 0 -- -- 96
2019-11-29 06:00:00 5.6 0 Calma 3 Este 0 -- -- 96
2019-11-29 05:00:00 5.9 0 Calma 5 Este 0 -- -- 95
2019-11-29 04:00:00 6.1 0 Calma 4 Este 0 -- -- 94
2019-11-29 03:00:00 6.6 2 Nordeste 4 Este 0 -- -- 94
2019-11-29 02:00:00 6.9 0 Calma 4 Este 0 -- -- 93
2019-11-29 01:00:00 7.6 0 Calma 5 Nordeste 0 -- -- 92
2019-11-29 00:00:00 8.9 0 Calma 3 Norte 0 -- -- 89
2019-11-28 23:00:00 8.8 0 Calma 3 Oeste 0 -- -- 89
2019-11-28 22:00:00 10.3 0 Calma 4 Norte 0 -- -- 85
2019-11-28 21:00:00 9.9 0 Calma 3 Sudeste 0 -- -- 86
2019-11-28 20:00:00 9.3 2 Oeste 9 Oeste 0 -- -- 86
2019-11-28 19:00:00 9.9 4 Este 6 Este 0 -- -- 83
2019-11-28 18:00:00 12 0 Calma 5 Noroeste 0 -- -- 69
2019-11-28 17:00:00 15.3 2 Noroeste 7 Oeste 0 -- -- 55
2019-11-28 16:00:00 16.8 2 Noroeste 8 Oeste 0 -- -- 52
2019-11-28 15:00:00 15.7 3 Noroeste 12 Noroeste 0 -- -- 59
2019-11-28 14:00:00 12.9 4 Noroeste 9 Norte 0 -- -- 70
2019-11-28 13:00:00 14.3 3 Oeste 10 Oeste 0 -- -- 65
2019-11-28 12:00:00 12.1 3 Oeste 10 Oeste 0 -- -- 75
2019-11-28 11:00:00 10.1 3 Oeste 8 Noroeste 0 -- -- 80
2019-11-28 10:00:00 7.4 2 Oeste 6 Sudoeste 0 -- -- 93
2019-11-28 09:00:00 6 0 Calma 4 Sudeste 0 -- -- 94
2019-11-28 08:00:00 6 0 Calma 4 Este 0 -- -- 93
2019-11-28 07:00:00 5.9 0 Calma 3 Este 0 -- -- 93
2019-11-28 06:00:00 6.4 0 Calma 4 Sudeste 0 -- -- 92
2019-11-28 05:00:00 6.9 0 Calma 5 Este 0 -- -- 89
2019-11-28 04:00:00 7.5 0 Calma 4 Este 0 -- -- 87
2019-11-28 03:00:00 8 0 Calma 5 Nordeste 0 -- -- 84
2019-11-28 02:00:00 8.3 0 Calma 5 Este 0 -- -- 85
2019-11-28 01:00:00 9.4 0 Calma 7 Este 0 -- -- 79
2019-11-28 00:00:00 9.7 2 Este 8 Este 0 -- -- 74
2019-11-27 23:00:00 10.3 0 Calma 11 Noroeste 0 -- -- 76
2019-11-27 22:00:00 11.4 3 Este 8 Nordeste 0 -- -- 69
2019-11-27 21:00:00 10.5 3 Este 9 Sudeste 0 -- -- 74
2019-11-27 20:00:00 9.5 3 Este 7 Este 0 -- -- 77
2019-11-27 19:00:00 9.8 4 Este 7 Este 0 -- -- 77
2019-11-27 18:00:00 12.2 0 Calma 18 Oeste 0 -- -- 66
2019-11-27 17:00:00 13.7 6 Noroeste 23 Oeste 0 -- -- 63
2019-11-27 16:00:00 14.5 7 Oeste 23 Oeste 0 -- -- 65
2019-11-27 15:00:00 16.5 5 Oeste 15 Sudoeste 0 -- -- 62
2019-11-27 14:00:00 14.5 3 Noroeste 13 Sudoeste 0 -- -- 67
2019-11-27 06:00:00 -- -- -- -- -- -- -- -- --
2019-11-27 05:00:00 -- -- -- -- -- -- -- -- --
2019-11-27 04:00:00 -- -- -- -- -- -- -- -- --
2019-11-27 03:00:00 11.9 2 Sur 5 Sudeste 0 -- -- 86
2019-11-27 02:00:00 11.2 0 Calma 6 Sudeste 0 -- -- 89
2019-11-27 01:00:00 11.3 0 Calma 6 Este 0 -- -- 89
2019-11-27 00:00:00 10.5 0 Calma 6 Sudeste 0 -- -- 92
2019-11-26 23:00:00 10.2 2 Sudeste 5 Este 0 -- -- 91
2019-11-26 22:00:00 11.1 0 Calma 5 Oeste 0 -- -- 90
2019-11-26 21:00:00 12.2 0 Calma 6 Este 0 -- -- 86
2019-11-26 20:00:00 12.4 0 Calma 8 Este 0 -- -- 86
2019-11-26 19:00:00 12.4 0 Calma 9 Sudeste 0 -- -- 87
2019-11-26 18:00:00 13.5 2 Nordeste 6 Norte 0 -- -- 82
2019-11-26 17:00:00 14.6 0 Calma 8 Noroeste 0 -- -- 77
2019-11-26 16:00:00 16.1 0 Calma 8 Oeste 0 -- -- 68
2019-11-26 15:00:00 16.7 3 Sudoeste 8 Sudoeste 0 -- -- 65
2019-11-26 14:00:00 13.3 3 Noroeste 8 Norte 0 -- -- 79
2019-11-26 13:00:00 12.7 2 Oeste 9 Noroeste 0 -- -- 86
2019-11-26 12:00:00 11.2 3 Noroeste 8 Noroeste 0 -- -- 93
2019-11-26 11:00:00 10 2 Noroeste 9 Noroeste 0 -- -- 95
2019-11-26 10:00:00 8.6 2 Sur 7 Sur 0 -- -- 96
2019-11-26 09:00:00 8.3 0 Calma 4 Este 0 -- -- 97
2019-11-26 08:00:00 7.9 0 Calma 3 Norte 0 -- -- 97
2019-11-26 07:00:00 7.4 0 Calma 4 Noroeste 0 -- -- 97
2019-11-26 06:00:00 8.1 0 Calma 6 Oeste 0 -- -- 97
2019-11-26 05:00:00 9.4 0 Calma 8 Este 0 -- -- 96
2019-11-26 04:00:00 10.6 2 Sudeste 6 Sudeste 0 -- -- 95
2019-11-26 03:00:00 10.5 2 Norte 4 Norte 0 -- -- 95
2019-11-26 02:00:00 11.6 0 Calma 5 Norte 0 -- -- 94
2019-11-26 01:00:00 12 2 Norte 4 Norte 0 -- -- 94
2019-11-26 00:00:00 11.9 0 Calma 7 Nordeste 0 -- -- 93
2019-11-25 23:00:00 11.7 0 Calma 5 Norte 0 -- -- 92
2019-11-25 22:00:00 11.8 2 Oeste 7 Nordeste 0 -- -- 92
2019-11-25 21:00:00 11.8 4 Norte 11 Norte 0 -- -- 93
2019-11-25 20:00:00 11.8 2 Este 8 Nordeste 0 -- -- 93
2019-11-25 19:00:00 11.1 2 Sur 8 Oeste 0 -- -- 91
2019-11-25 18:00:00 11.5 0 Calma 7 Oeste 0 -- -- 91
2019-11-25 17:00:00 11.7 0 Calma 6 Noroeste 0 -- -- 89
2019-11-25 16:00:00 11.4 2 Oeste 6 Oeste 0 -- -- 85
2019-11-25 15:00:00 11.5 2 Noroeste 7 Noroeste 0 -- -- 83
2019-11-25 14:00:00 12 2 Nordeste 6 Oeste 0 -- -- 80
2019-11-25 13:00:00 12.7 0 Calma 6 Noroeste 0 -- -- 81
2019-11-25 12:00:00 11.1 0 Calma 9 Noroeste 0 -- -- 77
2019-11-25 11:00:00 10.7 0 Calma 6 Oeste 0 -- -- 78
2019-11-25 10:00:00 8.8 0 Calma 5 Noroeste 0 -- -- 82
2019-11-25 09:00:00 7.1 0 Calma 7 Noroeste 0 -- -- 86
2019-11-25 08:00:00 6.3 2 Sur 6 Sudeste 0 -- -- 86
2019-11-25 07:00:00 6.4 2 Norte 7 Norte 0 -- -- 86
2019-11-25 06:00:00 6 2 Norte 10 Nordeste 0 -- -- 87
2019-11-25 05:00:00 5.2 3 Norte 11 Este 0 -- -- 87
2019-11-25 04:00:00 4.7 4 Este 7 Sudeste 0 -- -- 88
2019-11-25 03:00:00 5.6 2 Norte 7 Nordeste 0 -- -- 84
2019-11-25 02:00:00 5.1 0 Calma 7 Noroeste 0 -- -- 85
2019-11-25 01:00:00 6.1 2 Este 8 Sudeste 0 -- -- 80
2019-11-25 00:00:00 5.8 2 Este 8 Sudeste 0 -- -- 83
2019-11-24 23:00:00 4.8 0 Calma 5 Este 0 -- -- 88
2019-11-24 22:00:00 5.3 0 Calma 6 Este 0 -- -- 84
2019-11-24 21:00:00 5.9 0 Calma 4 Noroeste 0 -- -- 83
2019-11-24 20:00:00 7.5 3 Nordeste 9 Nordeste 0 -- -- 74
2019-11-24 19:00:00 8.2 4 Norte 10 Nordeste 0 -- -- 69
2019-11-24 18:00:00 10 5 Norte 15 Noroeste 0 -- -- 58
2019-11-24 17:00:00 12.5 5 Norte 15 Norte 0 -- -- 53
2019-11-24 16:00:00 13.9 5 Noroeste 12 Norte 0 -- -- 51
2019-11-24 15:00:00 13.5 5 Noroeste 13 Oeste 0 -- -- 55
2019-11-24 14:00:00 10.5 3 Noroeste 9 Oeste 0 -- -- 68
2019-11-24 13:00:00 9.3 5 Noroeste 12 Oeste 0 -- -- 73
2019-11-24 12:00:00 8.4 5 Noroeste 11 Noroeste 0 -- -- 74
2019-11-24 11:00:00 7.7 3 Noroeste 8 Oeste 0 -- -- 78
2019-11-24 10:00:00 4.5 0 Calma 5 Noroeste 0 -- -- 93
2019-11-24 09:00:00 3 0 Calma 3 Oeste 0 -- -- 94
2019-11-24 08:00:00 2.9 0 Calma 4 Sudeste 0 -- -- 94
2019-11-24 07:00:00 3.1 0 Calma 4 Este 0 -- -- 93
2019-11-24 06:00:00 3.5 0 Calma 4 Este 0 -- -- 92
2019-11-24 05:00:00 4 0 Calma 5 Sur 0 -- -- 90
2019-11-24 04:00:00 4.6 0 Calma 5 Este 0 -- -- 88
2019-11-24 03:00:00 6.4 0 Calma 2 Nordeste 0 -- -- 84
2019-11-24 02:00:00 7.2 0 Calma 4 Oeste 0 -- -- 80
2019-11-24 01:00:00 7.6 0 Calma 2 Nordeste 0 -- -- 80
2019-11-24 00:00:00 7.7 0 Calma 8 Norte 0 -- -- 77
2019-11-23 23:00:00 7.9 0 Calma 8 Noroeste 0 -- -- 75
2019-11-23 22:00:00 7 0 Calma 15 Norte 0 -- -- 78
2019-11-23 21:00:00 7.9 5 Norte 12 Noroeste 0 -- -- 74
2019-11-23 20:00:00 8 0 Calma 8 Norte 0 -- -- 72
2019-11-23 19:00:00 8 2 Nordeste 12 Noroeste 0 -- -- 69
2019-11-23 18:00:00 8.5 0 Calma 13 Norte 0 -- -- 69
2019-11-23 17:00:00 9.6 8 Norte 22 Noroeste 0 -- -- 66
2019-11-23 16:00:00 10.5 11 Norte 24 Norte 0 -- -- 60
2019-11-23 15:00:00 12.1 10 Noroeste 28 Norte 0 -- -- 50
2019-11-23 14:00:00 11.6 9 Noroeste 27 Norte 0 -- -- 56
2019-11-23 13:00:00 10.6 8 Noroeste 27 Noroeste 0.2 -- -- 60
2019-11-23 12:00:00 10.3 10 Noroeste 31 Noroeste 0 -- -- 62
2019-11-23 11:00:00 9.2 12 Norte 28 Noroeste 0 -- -- 67
2019-11-23 10:00:00 7.9 2 Nordeste 10 Este 0 -- -- 81
2019-11-23 09:00:00 7.5 3 Sur 12 Oeste 0 -- -- 85
2019-11-23 08:00:00 7.7 5 Oeste 28 Oeste 0 -- -- 79
2019-11-23 07:00:00 7.8 8 Noroeste 22 Oeste 0.2 -- -- 90
2019-11-23 06:00:00 8.9 6 Oeste 23 Oeste 0 -- -- 81
2019-11-23 05:00:00 9.2 8 Oeste 28 Noroeste 0 -- -- 81
2019-11-23 04:00:00 9.4 5 Noroeste 42 Norte 0.2 -- -- 82
2019-11-23 03:00:00 9.8 11 Oeste 32 Noroeste 0 -- -- 82
2019-11-23 02:00:00 9.5 4 Sur 27 Sur 0 -- -- 83
2019-11-23 01:00:00 9.2 3 Sur 21 Sur 0 -- -- 88
2019-11-23 00:00:00 8.9 4 Sur 24 Oeste 0 -- -- 89
2019-11-22 23:00:00 9.1 4 Oeste 17 Sudoeste 0 -- -- 93
2019-11-22 22:00:00 10.5 4 Sur 51 Oeste 0.2 -- -- 93
2019-11-22 21:00:00 12.6 3 Oeste 21 Oeste 3.6 -- -- 95
2019-11-22 20:00:00 12.4 4 Sur 19 Oeste 6.2 -- -- 94
2019-11-22 19:00:00 12.4 9 Sur 41 Sur 1.6 -- -- 91
2019-11-22 18:00:00 12.2 9 Sur 32 Sudoeste 0.8 -- -- 91
2019-11-22 17:00:00 12 10 Sur 30 Sudeste 0.8 -- -- 91
2019-11-22 16:00:00 11.6 8 Sur 22 Sudoeste 0.8 -- -- 92
2019-11-22 15:00:00 11.4 6 Sur 20 Sur 1.2 -- -- 92
2019-11-22 14:00:00 11.7 5 Sur 26 Sudoeste 0.8 -- -- 90
2019-11-22 13:00:00 12.7 8 Sur 22 Sur 0.2 -- -- 89
2019-11-22 12:00:00 12.4 4 Sur 12 Sur 0 -- -- 95
2019-11-22 11:00:00 11.4 3 Sudeste 14 Sudeste 0 -- -- 96
2019-11-22 10:00:00 10.5 4 Sudeste 13 Este 2.8 -- -- 97
2019-11-22 09:00:00 10.2 2 Sur 8 Sudeste 3.4 -- -- 96
2019-11-22 08:00:00 9.8 0 Calma 5 Nordeste 1.8 -- -- 96
2019-11-22 07:00:00 9.8 0 Calma 4 Nordeste 0 -- -- 96
2019-11-22 06:00:00 9.7 0 Calma 4 Este 0.2 -- -- 96
2019-11-22 05:00:00 9.7 0 Calma 4 Este 0 -- -- 96
2019-11-22 04:00:00 9.7 3 Nordeste 8 Este 0 -- -- 96
2019-11-22 03:00:00 9.5 2 Sudeste 4 Este 0 -- -- 96
2019-11-22 02:00:00 9.6 0 Calma 5 Sur 0 -- -- 96
2019-11-22 01:00:00 9.7 0 Calma 5 Sudoeste 0.2 -- -- 96
2019-11-22 00:00:00 9.7 0 Calma 7 Sur 0 -- -- 96
2019-11-21 23:00:00 9.7 2 Sur 9 Sur 0.2 -- -- 96
2019-11-21 22:00:00 9.7 0 Calma 6 Oeste 1.2 -- -- 95
2019-11-21 21:00:00 9.8 0 Calma 5 Oeste 2.2 -- -- 95
2019-11-21 20:00:00 9.9 0 Calma 13 Sudeste 0.6 -- -- 95
2019-11-21 19:00:00 9.9 0 Calma 5 Noroeste 1.6 -- -- 94
2019-11-21 18:00:00 10 0 Calma 10 Sudoeste 0.8 -- -- 93
2019-11-21 17:00:00 10.4 3 Sur 16 Sur 0.2 -- -- 91
2019-11-21 16:00:00 11 0 Calma 3 Sur 0 -- -- 90
2019-11-21 15:00:00 10.7 0 Calma 8 Nordeste 0 -- -- 90
2019-11-21 14:00:00 10.5 0 Calma 6 Sur 0.2 -- -- 91
2019-11-21 13:00:00 10.1 0 Calma 5 Sudeste 0.6 -- -- 91
2019-11-21 12:00:00 10.1 0 Calma 11 Sudoeste 0.8 -- -- 86
2019-11-21 11:00:00 10.3 0 Calma 7 Sudoeste 0 -- -- 84
2019-11-21 10:00:00 9.7 3 Sur 8 Sur 0 -- -- 86
2019-11-21 09:00:00 8.6 0 Calma 4 Sudeste 0 -- -- 90
2019-11-21 08:00:00 -- -- -- -- -- -- -- -- --
2019-11-21 07:00:00 -- -- -- -- -- -- -- -- --
2019-11-21 06:00:00 -- -- -- -- -- -- -- -- --
2019-11-21 05:00:00 -- -- -- -- -- -- -- -- --
2019-11-21 04:00:00 -- -- -- -- -- -- -- -- --
2019-11-21 03:00:00 -- -- -- -- -- -- -- -- --
2019-11-21 02:00:00 -- -- -- -- -- -- -- -- --
2019-11-21 01:00:00 -- -- -- -- -- -- -- -- --
2019-11-21 00:00:00 -- -- -- -- -- -- -- -- --
2019-11-20 23:00:00 -- -- -- -- -- -- -- -- --
2019-11-20 22:00:00 -- -- -- -- -- -- -- -- --
2019-11-20 21:00:00 7.6 0 Calma 9 Oeste 0 -- -- 94
2019-11-20 20:00:00 7.6 0 Calma 12 Sur 0 -- -- 94
2019-11-20 19:00:00 7.6 4 Sur 11 Sur 0.2 -- -- 93
2019-11-20 18:00:00 7.6 0 Calma 5 Sudeste 1.6 -- -- 92
2019-11-20 17:00:00 7.8 2 Sur 9 Noroeste 0.2 -- -- 89
2019-11-20 16:00:00 8 0 Calma 6 Oeste 0.2 -- -- 87
2019-11-20 15:00:00 7.9 3 Sur 10 Este 0.4 -- -- 82
2019-11-20 14:00:00 8.6 0 Calma 14 Oeste 0.2 -- -- 75
2019-11-20 13:00:00 9.7 2 Norte 9 Noroeste 0 -- -- 63
2019-11-20 12:00:00 11.2 2 Noroeste 6 Oeste 0 -- -- 52
2019-11-20 11:00:00 9.7 3 Noroeste 11 Norte 0 -- -- 63
2019-11-20 10:00:00 5.1 4 Norte 10 Noroeste 0 -- -- 79
2019-11-20 09:00:00 3.1 0 Calma 4 Noroeste 0 -- -- 86
2019-11-20 08:00:00 2.1 0 Calma 3 Nordeste 0 -- -- 89
2019-11-20 07:00:00 2.4 0 Calma 2 Norte 0 -- -- 88
2019-11-20 06:00:00 3.2 0 Calma 3 Nordeste 0 -- -- 85
2019-11-20 05:00:00 2.9 0 Calma 6 Este 0 -- -- 85
2019-11-20 04:00:00 3.4 3 Este 5 Este 0 -- -- 83
2019-11-20 03:00:00 3.5 0 Calma 4 Este 0 -- -- 84
2019-11-20 02:00:00 4.7 2 Nordeste 5 Este 0 -- -- 80
2019-11-20 01:00:00 5.6 0 Calma 2 Este 0 -- -- 79
2019-11-20 00:00:00 5.9 0 Calma 6 Sudeste 0 -- -- 77
2019-11-19 23:00:00 6.2 0 Calma 4 Sudeste 0 -- -- 77
2019-11-19 22:00:00 6.8 0 Calma 4 Este 0 -- -- 74
2019-11-19 21:00:00 6.3 0 Calma 5 Nordeste 0 -- -- 77
2019-11-19 20:00:00 6.1 2 Este 5 Este 0 -- -- 76
2019-11-19 19:00:00 6.8 3 Este 5 Este 0 -- -- 73
2019-11-19 18:00:00 8.1 3 Este 4 Este 0 -- -- 70
2019-11-19 17:00:00 11 0 Calma 6 Noroeste 0 -- -- 54
2019-11-19 16:00:00 12.8 0 Calma 9 Noroeste 0 -- -- 48
2019-11-19 15:00:00 11.9 3 Sudoeste 8 Oeste 0 -- -- 51
2019-11-19 14:00:00 10.6 2 Sudoeste 7 Noroeste 0 -- -- 55
2019-11-19 13:00:00 9.4 3 Noroeste 7 Oeste 0 -- -- 59
2019-11-19 12:00:00 9 2 Oeste 7 Oeste 0 -- -- 60
2019-11-19 11:00:00 6.1 3 Oeste 7 Oeste 0 -- -- 73
2019-11-19 10:00:00 4.4 2 Noroeste 4 Noroeste 0 -- -- 79
2019-11-19 09:00:00 3.3 0 Calma 2 Este 0 -- -- 87
2019-11-19 08:00:00 1.6 0 Calma 5 Este 0 -- -- 89
2019-11-19 07:00:00 1.3 2 Este 4 Nordeste 0 -- -- 90
2019-11-19 06:00:00 2.1 0 Calma 3 Sur 0 -- -- 86
2019-11-19 05:00:00 2.4 0 Calma 4 Este 0 -- -- 84
2019-11-19 04:00:00 2.1 0 Calma 5 Este 0 -- -- 82
2019-11-19 03:00:00 2.4 0 Calma 4 Nordeste 0 -- -- 81
2019-11-19 02:00:00 2.4 0 Calma 4 Sudeste 0 -- -- 84
2019-11-19 01:00:00 2.4 0 Calma 5 Sudeste 0 -- -- 85
2019-11-19 00:00:00 3.5 0 Calma 5 Sur 0 -- -- 80
2019-11-18 23:00:00 5.5 2 Sudeste 10 Nordeste 0 -- -- 66
2019-11-18 22:00:00 6.3 3 Este 14 Nordeste 0 -- -- 63
2019-11-18 21:00:00 6.8 3 Nordeste 13 Este 0 -- -- 63
2019-11-18 20:00:00 7.2 3 Este 15 Nordeste 0 -- -- 63
2019-11-18 19:00:00 7.6 4 Nordeste 15 Este 0 -- -- 62
2019-11-18 18:00:00 8.6 3 Este 13 Este 0 -- -- 59
2019-11-18 17:00:00 11.7 5 Nordeste 19 Noroeste 0 -- -- 49
2019-11-18 16:00:00 13.1 4 Norte 23 Norte 0 -- -- 47
2019-11-18 15:00:00 13.6 6 Norte 19 Norte 0 -- -- 46
2019-11-18 14:00:00 11.1 4 Noroeste 20 Sudeste 0 -- -- 53
2019-11-18 13:00:00 12.8 5 Nordeste 20 Nordeste 0 -- -- 50
2019-11-18 12:00:00 12.4 3 Nordeste 17 Nordeste 0.2 -- -- 57
2019-11-18 11:00:00 9.2 7 Nordeste 22 Nordeste 0 -- -- 84
2019-11-18 10:00:00 5.8 2 Norte 10 Noroeste 0 -- -- 96
2019-11-18 09:00:00 5.1 0 Calma 6 Noroeste 0 -- -- 97
2019-11-18 08:00:00 5.2 0 Calma 4 Este 0 -- -- 96
2019-11-18 07:00:00 6.7 0 Calma 8 Nordeste 0.2 -- -- 96
2019-11-18 06:00:00 7.3 3 Noroeste 17 Noroeste 2.2 -- -- 96
2019-11-18 05:00:00 8.3 2 Sudeste 15 Sudoeste 6 -- -- 96
2019-11-18 04:00:00 8.8 4 Sur 13 Sudoeste 0 -- -- 96
2019-11-18 03:00:00 9.2 3 Sur 13 Noroeste 2.6 -- -- 96
2019-11-18 02:00:00 9.3 5 Oeste 14 Sudoeste 2.8 -- -- 95
2019-11-18 01:00:00 9.4 3 Oeste 14 Sudoeste 1 -- -- 95
2019-11-18 00:00:00 9.3 3 Sur 12 Sur 0 -- -- 95
2019-11-17 23:00:00 8.9 3 Sudeste 10 Sudeste 0.4 -- -- 95
2019-11-17 22:00:00 8.8 3 Sur 8 Sudeste 0 -- -- 95
2019-11-17 21:00:00 8.7 2 Sur 9 Sur 0.2 -- -- 95
2019-11-17 20:00:00 8.5 0 Calma 10 Sur 0.2 -- -- 94
2019-11-17 19:00:00 8.2 3 Sur 11 Sur 0.4 -- -- 92
2019-11-17 18:00:00 8.3 3 Sur 8 Este 0 -- -- 90
2019-11-17 17:00:00 8.3 3 Sur 9 Sur 0.2 -- -- 89
2019-11-17 16:00:00 7.8 4 Sur 9 Sur 0 -- -- 89
2019-11-17 15:00:00 7.2 3 Sudeste 6 Este 0 -- -- 89
2019-11-17 14:00:00 5.8 2 Norte 4 Oeste 0 -- -- 87
2019-11-17 13:00:00 5.6 0 Calma 11 Noroeste 0 -- -- 79
2019-11-17 12:00:00 8.2 3 Sudoeste 8 Sudoeste 0 -- -- 63
2019-11-17 11:00:00 7.3 0 Calma 4 Sudoeste 0 -- -- 65
2019-11-17 10:00:00 3.9 0 Calma 4 Oeste 0 -- -- 76
2019-11-17 09:00:00 1.3 0 Calma 14 Nordeste 0 -- -- 83
2019-11-17 08:00:00 0.5 3 Nordeste 8 Noroeste 0 -- -- 88
2019-11-17 07:00:00 0.8 0 Calma 5 Noroeste 0 -- -- 86
2019-11-17 06:00:00 0.9 0 Calma 6 Oeste 0 -- -- 84
2019-11-17 05:00:00 2.1 0 Calma 7 Nordeste 0 -- -- 78
2019-11-17 04:00:00 0.8 0 Calma 3 Este 0 -- -- 86
2019-11-17 03:00:00 1.2 0 Calma 3 Nordeste 0 -- -- 84
2019-11-17 02:00:00 1.8 3 Este 5 Este 0 -- -- 82
2019-11-17 01:00:00 2.2 2 Este 5 Este 0 -- -- 80
2019-11-17 00:00:00 2.8 3 Este 6 Este 0 -- -- 76
2019-11-16 23:00:00 3.9 3 Este 8 Este 0 -- -- 68
2019-11-16 22:00:00 2.8 0 Calma 5 Nordeste 0 -- -- 76
2019-11-16 21:00:00 3.5 2 Este 5 Sudeste 0 -- -- 74
2019-11-16 20:00:00 4 3 Este 5 Este 0 -- -- 71
2019-11-16 19:00:00 5.6 0 Calma 13 Norte 0 -- -- 63
2019-11-16 18:00:00 8.1 7 Norte 19 Noroeste 0 -- -- 49
2019-11-16 17:00:00 10.9 6 Noroeste 18 Norte 0 -- -- 42
2019-11-16 16:00:00 12.9 6 Oeste 15 Oeste 0 -- -- 42
2019-11-16 15:00:00 12.2 6 Noroeste 16 Noroeste 0 -- -- 44
2019-11-16 14:00:00 11 3 Oeste 15 Oeste 0 -- -- 48
2019-11-16 13:00:00 9.8 4 Oeste 12 Oeste 0 -- -- 56
2019-11-16 12:00:00 7.8 4 Noroeste 11 Noroeste 0 -- -- 65
2019-11-16 11:00:00 5.8 3 Noroeste 9 Norte 0 -- -- 72
2019-11-16 10:00:00 2.7 2 Noroeste 6 Noroeste 0 -- -- 87
2019-11-16 09:00:00 1 0 Calma 3 Norte 0 -- -- 93
2019-11-16 08:00:00 0.1 0 Calma 4 Sudeste 0 -- -- 93
2019-11-16 07:00:00 0.5 0 Calma 5 Este 0 -- -- 92
2019-11-16 06:00:00 0.5 0 Calma 2 Sudeste 0 -- -- 92
2019-11-16 05:00:00 1.3 0 Calma 2 Sudoeste 0 -- -- 91
2019-11-16 04:00:00 1.2 0 Calma 2 Sudeste 0 -- -- 90
2019-11-16 03:00:00 1.5 0 Calma 4 Nordeste 0 -- -- 89
2019-11-16 02:00:00 2.1 0 Calma 5 Noroeste 0 -- -- 86
2019-11-16 01:00:00 3.6 0 Calma 4 Oeste 0 -- -- 81
2019-11-16 00:00:00 4 0 Calma 3 Noroeste 0 -- -- 80
2019-11-15 23:00:00 4 0 Calma 4 Noroeste 0 -- -- 77
2019-11-15 22:00:00 3.7 0 Calma 5 Norte 0 -- -- 77
2019-11-15 21:00:00 4.3 3 Norte 14 Noroeste 0 -- -- 74
2019-11-15 20:00:00 4.7 3 Noroeste 15 Norte 0 -- -- 72
2019-11-15 19:00:00 5.1 5 Norte 18 Noroeste 0 -- -- 65
2019-11-15 18:00:00 5.4 7 Norte 20 Norte 0 -- -- 62
2019-11-15 17:00:00 6.3 6 Norte 18 Norte 0 -- -- 55
2019-11-15 16:00:00 8.5 6 Noroeste 15 Norte 0 -- -- 48
2019-11-15 15:00:00 7.7 6 Noroeste 17 Oeste 0 -- -- 51
2019-11-15 14:00:00 6.7 4 Nordeste 19 Norte 0 -- -- 57
2019-11-15 13:00:00 8.9 5 Noroeste 13 Oeste 0 -- -- 52
2019-11-15 12:00:00 6.3 0 Calma 14 Norte 0 -- -- 66
2019-11-15 11:00:00 5 3 Noroeste 12 Noroeste 0 -- -- 74
2019-11-15 10:00:00 4.4 4 Noroeste 11 Oeste 0 -- -- 84
2019-11-15 09:00:00 4.1 3 Oeste 7 Oeste 0 -- -- 85
2019-11-15 08:00:00 3.8 0 Calma 9 Oeste 0 -- -- 87
2019-11-15 07:00:00 4 0 Calma 4 Sur 0 -- -- 89
2019-11-15 06:00:00 4.3 0 Calma 7 Noroeste 0 -- -- 87
2019-11-15 05:00:00 4.7 0 Calma 7 Oeste 0 -- -- 88
2019-11-15 04:00:00 4.5 0 Calma 5 Oeste 0 -- -- 89
2019-11-15 03:00:00 5.1 0 Calma 9 Oeste 0 -- -- 86
2019-11-15 02:00:00 5.5 3 Sudoeste 10 Sur 0 -- -- 86
2019-11-15 01:00:00 5.9 3 Oeste 11 Oeste 0 -- -- 83
2019-11-15 00:00:00 6 3 Sur 8 Sudeste 0 -- -- 83